Terminal Aerodrome Forecast
Issued by NWS Charleston, SC

Home | Current Version | Previous Version | Text Only | Print | Product List | Glossary On
Versions: 1 2 3 4 5 6 7 8 9 10 11 12 13 14 15 16 17 18 19 20 21 22 23 24 25 26 27 28 29 30 31
000
FTUS42 KCHS 171138
TAFCHS
TAF
KCHS 171138Z 1712/1812 00000KT 1/2SM FG VV002
      TEMPO 1713/1716 24005KT 1 1/2SM BR BKN004 BKN015
     FM171600 24006KT P6SM BKN020
     FM171900 23009KT P6SM SCT045
     FM180600 21004KT 6SM BR SCT250=

USA.gov is the U.S. government's official web portal to all federal, state and local government web resources and services.